createdAt,value
2023-04-29T00:01:12.247Z,1.61
2023-04-29T00:03:40.292Z,1.59
2023-04-29T00:06:10.453Z,1.57
2023-04-29T00:08:38.338Z,1.53
2023-04-29T00:11:06.273Z,1.56
2023-04-29T00:13:34.151Z,1.52
2023-04-29T00:16:02.198Z,1.55
2023-04-29T00:18:32.426Z,1.51
2023-04-29T00:21:00.264Z,1.50
2023-04-29T00:23:28.210Z,1.49
2023-04-29T00:25:56.018Z,1.49
2023-04-29T00:28:23.887Z,1.47
2023-04-29T00:30:51.893Z,1.41
2023-04-29T00:33:19.744Z,1.39
2023-04-29T00:35:49.241Z,1.37
2023-04-29T00:38:17.326Z,1.36
2023-04-29T00:40:45.959Z,1.36
2023-04-29T00:43:13.921Z,1.32
2023-04-29T00:45:41.828Z,1.31
2023-04-29T00:48:09.843Z,1.30
2023-04-29T00:50:37.875Z,1.28
2023-04-29T00:53:07.351Z,1.27
2023-04-29T00:55:36.651Z,1.22
2023-04-29T00:58:04.545Z,1.20
2023-04-29T01:00:32.542Z,1.19
2023-04-29T01:03:00.626Z,1.15
2023-04-29T01:05:28.874Z,1.14
2023-04-29T01:08:08.876Z,1.15
2023-04-29T01:10:45.670Z,1.12
2023-04-29T01:13:19.126Z,1.08
2023-04-29T01:15:51.175Z,1.07
2023-04-29T01:18:26.058Z,1.08
2023-04-29T01:20:54.658Z,1.06
2023-04-29T01:23:28.137Z,1.03
2023-04-29T01:25:56.442Z,1.04
2023-04-29T01:28:40.778Z,1.04
2023-04-29T01:31:12.351Z,1.02
2023-04-29T01:33:49.479Z,1.02
2023-04-29T01:36:27.819Z,1.00
2023-04-29T01:39:08.248Z,0.99
2023-04-29T01:41:42.191Z,0.96
2023-04-29T01:44:16.522Z,0.93
2023-04-29T01:46:46.960Z,0.90
2023-04-29T01:49:14.942Z,0.89
2023-04-29T01:51:42.925Z,0.87
2023-04-29T01:54:12.220Z,0.81
2023-04-29T01:56:40.190Z,0.81
2023-04-29T01:59:08.297Z,0.83
2023-04-29T02:01:36.170Z,0.81
2023-04-29T02:04:04.116Z,0.79
2023-04-29T02:06:33.641Z,0.82
2023-04-29T02:09:01.637Z,0.83
2023-04-29T02:11:33.508Z,0.79
2023-04-29T02:14:04.465Z,0.71
2023-04-29T02:16:32.329Z,0.71
2023-04-29T02:19:00.454Z,0.69
2023-04-29T02:21:28.341Z,0.69
2023-04-29T02:23:56.549Z,0.69
2023-04-29T02:26:24.879Z,0.67
2023-04-29T02:28:54.892Z,0.64
2023-04-29T02:31:22.548Z,0.58
2023-04-29T02:33:50.521Z,0.61
2023-04-29T02:36:18.900Z,0.60
2023-04-29T02:38:46.937Z,0.59
2023-04-29T02:41:18.158Z,0.58
2023-04-29T02:43:46.595Z,0.55
2023-04-29T02:46:16.426Z,0.51
2023-04-29T02:48:44.384Z,0.51
2023-04-29T02:51:12.412Z,0.48
2023-04-29T02:53:40.234Z,0.45
2023-04-29T02:56:08.231Z,0.44
2023-04-29T02:58:36.112Z,0.40
2023-04-29T03:01:04.991Z,0.35
2023-04-29T03:03:34.465Z,0.31
2023-04-29T03:06:02.484Z,0.33
2023-04-29T03:08:30.634Z,0.35
2023-04-29T03:10:58.816Z,0.35
2023-04-29T03:13:26.775Z,0.34
2023-04-29T03:15:54.713Z,0.36
2023-04-29T03:18:22.537Z,0.40
2023-04-29T03:20:52.040Z,0.41
2023-04-29T03:23:19.965Z,0.44
2023-04-29T03:25:47.876Z,0.44
2023-04-29T03:28:16.183Z,0.46
2023-04-29T03:30:44.035Z,0.50
2023-04-29T03:33:11.849Z,0.53
2023-04-29T03:35:39.819Z,0.55
2023-04-29T03:38:09.087Z,0.58
2023-04-29T03:40:37.016Z,0.59
2023-04-29T03:43:04.943Z,0.62
2023-04-29T03:45:33.074Z,0.66
2023-04-29T03:48:01.210Z,0.70
2023-04-29T03:50:29.195Z,0.78
2023-04-29T03:52:57.922Z,0.82
2023-04-29T03:55:27.282Z,0.83
2023-04-29T03:57:55.310Z,0.85
2023-04-29T04:00:24.034Z,0.84
2023-04-29T04:02:52.147Z,0.87
2023-04-29T04:05:21.081Z,0.92
2023-04-29T04:07:52.493Z,0.95
2023-04-29T04:10:20.895Z,0.97
2023-04-29T04:12:50.181Z,1.00
2023-04-29T04:15:18.195Z,1.05
2023-04-29T04:17:46.202Z,1.06
2023-04-29T04:20:14.358Z,1.09
2023-04-29T04:22:42.226Z,1.16
2023-04-29T04:25:11.343Z,1.15
2023-04-29T04:27:39.183Z,1.24
2023-04-29T04:30:09.899Z,1.56
2023-04-29T04:32:37.890Z,1.56
2023-04-29T04:35:06.562Z,1.62
2023-04-29T04:37:34.453Z,1.73
2023-04-29T04:40:02.491Z,1.75
2023-04-29T04:42:30.416Z,1.76
2023-04-29T04:44:58.368Z,1.83
2023-04-29T04:47:27.640Z,1.92
2023-04-29T04:49:55.748Z,2.10
2023-04-29T04:52:23.930Z,2.25
2023-04-29T04:54:51.842Z,2.17
2023-04-29T04:57:19.689Z,2.18
2023-04-29T04:59:47.608Z,2.23
2023-04-29T05:02:15.556Z,2.25
2023-04-29T05:04:44.731Z,2.31
2023-04-29T05:07:12.658Z,2.35
2023-04-29T05:09:40.761Z,2.40
2023-04-29T05:12:08.698Z,2.47
2023-04-29T05:14:36.612Z,2.54
2023-04-29T05:17:04.533Z,2.63
2023-04-29T05:19:32.481Z,2.74
2023-04-29T05:22:01.855Z,2.83
2023-04-29T05:24:30.453Z,2.95
2023-04-29T05:26:58.380Z,3.09
2023-04-29T05:29:27.267Z,3.19
2023-04-29T05:31:55.238Z,3.38
2023-04-29T05:34:23.141Z,3.57
2023-04-29T05:36:50.944Z,3.73
2023-04-29T05:39:20.347Z,3.92
2023-04-29T05:41:48.312Z,4.07
2023-04-29T05:44:16.261Z,4.27
2023-04-29T05:46:44.272Z,4.39
2023-04-29T05:49:12.324Z,4.55
2023-04-29T05:51:40.282Z,4.71
2023-04-29T05:54:08.192Z,4.94
2023-04-29T05:56:37.509Z,5.26
2023-04-29T05:59:05.485Z,5.65
2023-04-29T06:01:34.041Z,5.95
2023-04-29T06:04:02.243Z,6.31
2023-04-29T06:06:30.506Z,6.61
2023-04-29T06:08:58.509Z,6.64
2023-04-29T06:11:26.848Z,6.70
2023-04-29T06:13:56.101Z,6.76
2023-04-29T06:16:24.107Z,6.76
2023-04-29T06:18:52.235Z,6.74
2023-04-29T06:21:20.047Z,6.76
2023-04-29T06:23:47.931Z,6.82
2023-04-29T06:26:15.833Z,6.83
2023-04-29T06:28:43.729Z,6.89
2023-04-29T06:31:12.998Z,6.98
2023-04-29T06:33:40.936Z,7.05
2023-04-29T06:36:09.124Z,7.13
2023-04-29T06:38:36.952Z,7.21
2023-04-29T06:41:05.034Z,7.26
2023-04-29T06:43:32.961Z,7.40
2023-04-29T06:46:01.040Z,7.67
2023-04-29T06:48:30.254Z,7.91
2023-04-29T06:51:00.001Z,7.95
2023-04-29T06:53:28.827Z,8.09
2023-04-29T06:55:56.807Z,8.27
2023-04-29T06:58:24.616Z,8.51
2023-04-29T07:00:52.897Z,8.72
2023-04-29T07:03:20.973Z,8.87
2023-04-29T07:05:50.370Z,8.94
2023-04-29T07:08:18.328Z,8.94
2023-04-29T07:10:46.797Z,9.00
2023-04-29T07:13:14.652Z,9.13
2023-04-29T07:15:42.554Z,9.26
2023-04-29T07:18:10.640Z,9.31
2023-04-29T07:20:38.610Z,9.46
2023-04-29T07:23:07.864Z,9.57
2023-04-29T07:25:36.025Z,9.72
2023-04-29T07:28:04.690Z,9.73
2023-04-29T07:30:32.705Z,9.94
2023-04-29T07:33:00.689Z,9.93
2023-04-29T07:35:28.756Z,10.02
2023-04-29T07:37:57.087Z,9.97
2023-04-29T07:40:26.467Z,9.77
2023-04-29T07:42:54.431Z,9.72
2023-04-29T07:45:22.348Z,9.70
2023-04-29T07:47:50.257Z,9.82
2023-04-29T07:50:18.300Z,9.96
2023-04-29T07:52:46.184Z,10.04
2023-04-29T07:55:14.153Z,10.08
2023-04-29T07:57:43.428Z,10.07
2023-04-29T08:00:12.142Z,9.95
2023-04-29T08:02:40.504Z,9.97
2023-04-29T08:05:09.273Z,9.99
2023-04-29T08:07:37.329Z,10.03
2023-04-29T08:10:05.981Z,10.11
2023-04-29T08:12:34.270Z,10.04
2023-04-29T08:15:04.857Z,10.06
2023-04-29T08:17:32.868Z,10.12
2023-04-29T08:20:00.852Z,10.17
2023-04-29T08:22:28.702Z,10.21
2023-04-29T08:24:57.676Z,10.29
2023-04-29T08:27:25.761Z,10.39
2023-04-29T08:29:53.795Z,10.36
2023-04-29T08:32:23.296Z,10.41
2023-04-29T08:34:51.433Z,10.45
2023-04-29T08:37:20.728Z,10.45
2023-04-29T08:39:49.046Z,10.52
2023-04-29T08:42:20.778Z,10.75
2023-04-29T08:44:50.507Z,10.85
2023-04-29T08:47:19.189Z,10.88
2023-04-29T08:49:48.526Z,10.89
2023-04-29T08:52:16.397Z,10.93
2023-04-29T08:54:44.334Z,11.02
2023-04-29T08:57:14.532Z,11.13
2023-04-29T08:59:43.415Z,11.15
2023-04-29T09:02:17.148Z,11.22
2023-04-29T09:04:54.935Z,11.21
2023-04-29T09:07:24.042Z,11.20
2023-04-29T09:09:53.981Z,11.12
2023-04-29T09:12:21.981Z,11.09
2023-04-29T09:14:49.844Z,11.13
2023-04-29T09:17:18.283Z,11.20
2023-04-29T09:19:46.199Z,11.23
2023-04-29T09:22:15.519Z,11.23
2023-04-29T09:24:44.396Z,11.35
2023-04-29T09:27:28.229Z,11.29
2023-04-29T09:30:02.533Z,11.20
2023-04-29T09:32:30.927Z,11.12
2023-04-29T09:34:58.792Z,10.93
2023-04-29T09:37:28.862Z,10.91
2023-04-29T09:39:56.803Z,10.94
2023-04-29T09:42:24.792Z,11.01
2023-04-29T09:44:54.511Z,11.08
2023-04-29T09:47:31.314Z,11.04
2023-04-29T09:50:13.690Z,11.04
2023-04-29T09:52:43.301Z,11.12
2023-04-29T09:55:12.655Z,11.18
2023-04-29T09:57:44.365Z,11.18
2023-04-29T10:00:14.659Z,11.15
2023-04-29T10:02:43.777Z,11.09
2023-04-29T10:05:12.483Z,11.18
2023-04-29T10:07:42.615Z,11.20
2023-04-29T10:10:13.707Z,11.23
2023-04-29T10:12:42.471Z,11.24
2023-04-29T10:15:24.295Z,11.16
2023-04-29T10:17:59.292Z,11.12
2023-04-29T10:20:27.513Z,11.10
2023-04-29T10:22:59.504Z,11.02
2023-04-29T10:25:28.315Z,11.10
2023-04-29T10:27:57.007Z,11.20
2023-04-29T10:30:25.315Z,11.17
2023-04-29T10:32:53.278Z,11.17
2023-04-29T10:35:23.934Z,11.17
2023-04-29T10:37:53.006Z,11.25
2023-04-29T10:40:29.474Z,11.28
2023-04-29T10:42:58.026Z,11.31
2023-04-29T10:45:28.529Z,11.35
2023-04-29T10:48:15.704Z,11.32
2023-04-29T10:51:03.352Z,11.28
2023-04-29T10:53:31.744Z,11.29
2023-04-29T10:56:09.886Z,11.12
2023-04-29T10:58:43.718Z,11.07
2023-04-29T11:01:13.752Z,10.99
2023-04-29T11:04:05.152Z,10.93
2023-04-29T11:06:53.193Z,10.90
2023-04-29T11:09:23.289Z,10.93
2023-04-29T11:12:03.478Z,10.89
2023-04-29T11:14:32.690Z,10.87
2023-04-29T11:17:02.396Z,10.93
2023-04-29T11:19:34.859Z,10.90
2023-04-29T11:22:11.405Z,10.88
2023-04-29T11:24:51.030Z,10.82
2023-04-29T11:27:23.001Z,10.83
2023-04-29T11:29:51.931Z,10.93
2023-04-29T11:32:22.696Z,11.01
2023-04-29T11:34:50.714Z,11.24
2023-04-29T11:37:23.300Z,11.45
2023-04-29T11:39:52.286Z,11.67
2023-04-29T11:42:24.975Z,11.76
2023-04-29T11:44:54.647Z,11.78
2023-04-29T11:47:24.172Z,11.94
2023-04-29T11:49:52.137Z,12.15
2023-04-29T11:52:20.077Z,12.14
2023-04-29T11:54:48.844Z,12.31
2023-04-29T11:57:16.832Z,12.32
2023-04-29T11:59:46.086Z,12.23
2023-04-29T12:02:14.860Z,12.01
2023-04-29T12:04:49.071Z,11.90
2023-04-29T12:07:17.995Z,11.77
2023-04-29T12:09:46.794Z,11.67
2023-04-29T12:12:15.957Z,11.52
2023-04-29T12:14:45.984Z,11.38
2023-04-29T12:17:14.375Z,11.32
2023-04-29T12:19:44.120Z,11.28
2023-04-29T12:22:12.510Z,11.25
2023-04-29T12:24:41.173Z,11.14
2023-04-29T12:27:12.376Z,10.98
2023-04-29T12:29:41.227Z,10.92
2023-04-29T12:32:19.506Z,10.82
2023-04-29T12:34:48.013Z,10.73
2023-04-29T12:37:16.585Z,10.60
2023-04-29T12:39:44.777Z,10.48
2023-04-29T12:42:16.926Z,10.40
2023-04-29T12:44:47.567Z,10.49
2023-04-29T12:47:17.637Z,10.65
2023-04-29T12:49:47.124Z,10.79
2023-04-29T12:52:15.154Z,10.94
2023-04-29T12:54:44.074Z,10.96
2023-04-29T12:57:12.646Z,10.79
2023-04-29T12:59:41.415Z,10.70
2023-04-29T13:02:10.022Z,10.54
2023-04-29T13:04:40.243Z,10.37
2023-04-29T13:07:08.062Z,10.13
2023-04-29T13:09:37.974Z,10.15
2023-04-29T13:12:09.516Z,10.15
2023-04-29T13:14:37.585Z,10.23
2023-04-29T13:17:06.434Z,10.18
2023-04-29T13:19:48.056Z,10.12
2023-04-29T13:22:20.333Z,10.00
2023-04-29T13:24:48.244Z,10.06
2023-04-29T13:27:16.207Z,10.20
2023-04-29T13:29:44.314Z,10.30
2023-04-29T13:32:12.643Z,10.21
2023-04-29T13:34:43.313Z,10.11
2023-04-29T13:37:11.646Z,9.97
2023-04-29T13:39:45.204Z,10.05
2023-04-29T13:42:15.388Z,10.06
2023-04-29T13:44:52.760Z,10.10
2023-04-29T13:47:26.148Z,10.34
2023-04-29T14:00:25.337Z,10.15
2023-04-29T14:05:27.205Z,9.87
2023-04-29T14:07:55.338Z,9.91
2023-04-29T14:10:24.686Z,9.98
2023-04-29T14:12:52.527Z,9.99
2023-04-29T14:15:20.770Z,10.04
2023-04-29T14:17:50.228Z,10.01
2023-04-29T14:20:18.254Z,10.01
2023-04-29T14:22:46.294Z,9.95
2023-04-29T14:25:14.405Z,9.87
2023-04-29T14:27:43.681Z,9.79
2023-04-29T14:30:12.433Z,9.72
2023-04-29T14:32:40.435Z,9.66
2023-04-29T14:35:09.083Z,9.61
2023-04-29T14:37:37.028Z,9.64
2023-04-29T14:40:06.503Z,9.74
2023-04-29T14:42:34.492Z,9.76
2023-04-29T14:45:03.794Z,9.71
2023-04-29T14:47:34.718Z,9.59
2023-04-29T14:50:02.680Z,9.53
2023-04-29T14:52:30.735Z,9.56
2023-04-29T14:54:58.658Z,9.59
2023-04-29T14:57:26.533Z,9.65
2023-04-29T14:59:54.480Z,9.68
2023-04-29T15:02:23.833Z,9.67
2023-04-29T15:04:51.699Z,9.67
2023-04-29T15:07:19.988Z,9.60
2023-04-29T15:09:47.872Z,9.59
2023-04-29T15:12:17.638Z,9.59
2023-04-29T15:14:45.528Z,9.57
2023-04-29T15:17:13.515Z,9.54
2023-04-29T15:19:42.814Z,9.51
2023-04-29T15:22:10.902Z,9.48
2023-04-29T15:24:39.773Z,9.42
2023-04-29T15:27:07.757Z,9.37
2023-04-29T15:29:37.591Z,9.37
2023-04-29T15:32:05.982Z,9.32
2023-04-29T15:34:33.810Z,9.21
2023-04-29T15:37:03.136Z,8.96
2023-04-29T15:39:31.015Z,8.90
2023-04-29T15:42:00.242Z,8.78
2023-04-29T15:44:28.172Z,8.61
2023-04-29T15:46:56.080Z,8.40
2023-04-29T15:49:24.622Z,8.18
2023-04-29T15:51:52.811Z,8.01
2023-04-29T15:54:23.120Z,7.83
2023-04-29T15:56:50.990Z,7.55
2023-04-29T15:59:18.891Z,7.49
2023-04-29T16:01:46.882Z,7.32
2023-04-29T16:04:14.802Z,7.24
2023-04-29T16:06:42.827Z,7.14
2023-04-29T16:09:12.158Z,7.10
2023-04-29T16:11:41.572Z,7.07
2023-04-29T16:14:09.533Z,7.12
2023-04-29T16:16:37.425Z,7.08
2023-04-29T16:19:05.368Z,7.03
2023-04-29T16:21:34.115Z,6.99
2023-04-29T16:24:02.012Z,6.95
2023-04-29T16:26:30.361Z,6.97
2023-04-29T16:28:59.859Z,6.95
2023-04-29T16:31:28.371Z,7.01
2023-04-29T16:33:57.464Z,7.10
2023-04-29T16:36:26.313Z,7.18
2023-04-29T16:38:55.069Z,7.22
2023-04-29T16:41:24.107Z,7.23
2023-04-29T16:43:52.005Z,7.28
2023-04-29T16:46:21.556Z,7.30
2023-04-29T16:48:51.313Z,7.29
2023-04-29T16:51:19.448Z,7.33
2023-04-29T16:53:47.301Z,7.35
2023-04-29T16:56:15.298Z,7.33
2023-04-29T16:58:43.166Z,7.34
2023-04-29T17:01:11.245Z,7.35
2023-04-29T17:03:41.173Z,7.30
2023-04-29T17:06:09.278Z,7.16
2023-04-29T17:08:37.309Z,7.16
2023-04-29T17:11:06.647Z,7.04
2023-04-29T17:13:34.695Z,7.04
2023-04-29T17:16:02.730Z,7.04
2023-04-29T17:18:30.586Z,6.98
2023-04-29T17:21:00.847Z,6.97
2023-04-29T17:23:28.719Z,6.88
2023-04-29T17:25:57.134Z,6.92
2023-04-29T17:28:25.125Z,6.95
2023-04-29T17:30:55.766Z,6.93
2023-04-29T17:33:32.446Z,6.89
2023-04-29T17:36:02.294Z,6.87
2023-04-29T17:38:30.315Z,6.85
2023-04-29T17:40:58.207Z,6.85
2023-04-29T17:43:26.653Z,6.85
2023-04-29T17:45:54.841Z,6.85
2023-04-29T17:48:22.880Z,6.85
2023-04-29T17:50:50.776Z,6.84
2023-04-29T17:53:20.058Z,6.87
2023-04-29T17:55:47.939Z,6.87
2023-04-29T17:58:15.914Z,6.86
2023-04-29T18:00:43.935Z,6.87
2023-04-29T18:03:11.993Z,6.88
2023-04-29T18:05:39.892Z,6.88
2023-04-29T18:08:07.778Z,6.85
2023-04-29T18:10:37.025Z,6.87
2023-04-29T18:13:05.026Z,6.87
2023-04-29T18:15:33.215Z,6.87
2023-04-29T18:18:01.120Z,6.84
2023-04-29T18:20:29.056Z,6.79
2023-04-29T18:22:57.024Z,6.66
2023-04-29T18:25:24.889Z,6.60
2023-04-29T18:28:07.604Z,6.49
2023-04-29T18:30:43.553Z,6.43
2023-04-29T18:33:11.530Z,6.37
2023-04-29T18:35:39.454Z,6.34
2023-04-29T18:38:08.486Z,6.32
2023-04-29T18:40:37.005Z,6.25
2023-04-29T18:43:06.277Z,6.22
2023-04-29T18:45:34.134Z,6.16
2023-04-29T18:48:05.557Z,6.13
2023-04-29T18:50:34.058Z,6.06
2023-04-29T18:53:02.030Z,5.96
2023-04-29T18:55:30.675Z,5.95
2023-04-29T18:57:58.749Z,5.89
2023-04-29T19:00:28.222Z,5.76
2023-04-29T19:02:56.657Z,5.75
2023-04-29T19:05:24.937Z,5.69
2023-04-29T19:07:53.016Z,5.66
2023-04-29T19:10:21.316Z,5.64
2023-04-29T19:12:49.415Z,5.63
2023-04-29T19:15:17.819Z,5.61
2023-04-29T19:17:47.303Z,5.61
2023-04-29T19:20:15.461Z,5.62
2023-04-29T19:22:43.602Z,5.56
2023-04-29T19:25:12.114Z,5.54
2023-04-29T19:27:45.116Z,5.56
2023-04-29T19:30:14.300Z,5.49
2023-04-29T19:32:43.077Z,5.47
2023-04-29T19:35:13.007Z,5.40
2023-04-29T19:37:41.443Z,5.27
2023-04-29T19:40:10.904Z,5.27
2023-04-29T19:42:40.076Z,5.17
2023-04-29T19:45:09.693Z,5.11
2023-04-29T19:47:37.739Z,5.08
2023-04-29T19:50:06.433Z,5.05
2023-04-29T19:52:35.655Z,5.02
2023-04-29T19:55:04.909Z,5.06
2023-04-29T19:57:33.130Z,5.04
2023-04-29T20:00:01.468Z,5.07
2023-04-29T20:02:29.469Z,5.10
2023-04-29T20:04:57.517Z,5.11
2023-04-29T20:07:25.566Z,5.09
2023-04-29T20:09:55.165Z,5.10
2023-04-29T20:12:23.405Z,5.11
2023-04-29T20:14:51.256Z,5.07
2023-04-29T20:17:19.204Z,4.98
2023-04-29T20:19:47.130Z,4.95
2023-04-29T20:22:15.052Z,4.89
2023-04-29T20:24:42.935Z,4.80
2023-04-29T20:27:12.296Z,4.78
2023-04-29T20:29:40.197Z,4.71
2023-04-29T20:32:08.110Z,4.65
2023-04-29T20:34:36.471Z,4.68
2023-04-29T20:37:04.435Z,4.70
2023-04-29T20:39:32.353Z,4.68
2023-04-29T20:42:00.499Z,4.71
2023-04-29T20:44:30.348Z,4.73
2023-04-29T20:46:58.538Z,4.74
2023-04-29T20:49:26.760Z,4.76
2023-04-29T20:51:54.746Z,4.78
2023-04-29T20:54:22.740Z,4.79
2023-04-29T20:56:50.606Z,4.83
2023-04-29T20:59:18.666Z,4.84
2023-04-29T21:01:47.949Z,4.89
2023-04-29T21:04:16.523Z,4.90
2023-04-29T21:06:44.620Z,4.91
2023-04-29T21:09:12.750Z,4.94
2023-04-29T21:11:40.649Z,4.90
2023-04-29T21:14:08.443Z,4.90
2023-04-29T21:16:36.420Z,4.91
2023-04-29T21:19:05.726Z,4.87
2023-04-29T21:21:33.717Z,4.83
2023-04-29T21:24:01.560Z,4.81
2023-04-29T21:26:29.444Z,4.81
2023-04-29T21:28:57.319Z,4.70
2023-04-29T21:31:25.341Z,4.59
2023-04-29T21:33:53.295Z,4.56
2023-04-29T21:36:22.575Z,4.51
2023-04-29T21:38:51.953Z,4.42
2023-04-29T21:41:25.110Z,4.38
2023-04-29T21:43:53.413Z,4.41
2023-04-29T21:46:21.780Z,4.45
2023-04-29T21:48:50.071Z,4.50
2023-04-29T21:51:19.628Z,4.52
2023-04-29T21:53:48.836Z,4.54
2023-04-29T21:56:16.848Z,4.55
2023-04-29T21:58:44.859Z,4.57
2023-04-29T22:01:26.660Z,4.57
2023-04-29T22:03:54.647Z,4.60
2023-04-29T22:06:22.657Z,4.63
2023-04-29T22:08:52.115Z,4.66
2023-04-29T22:11:21.560Z,4.68
2023-04-29T22:13:49.691Z,4.70
2023-04-29T22:16:18.741Z,4.72
2023-04-29T22:18:46.801Z,4.74
2023-04-29T22:21:14.829Z,4.74
2023-04-29T22:23:43.174Z,4.79
2023-04-29T22:26:12.477Z,4.79
2023-04-29T22:28:40.410Z,4.80
2023-04-29T22:31:08.276Z,4.83
2023-04-29T22:33:36.169Z,4.82
2023-04-29T22:36:05.313Z,4.79
2023-04-29T22:38:33.252Z,4.78
2023-04-29T22:43:31.304Z,4.79
2023-04-29T22:45:59.331Z,4.75
2023-04-29T22:48:28.044Z,4.79
2023-04-29T22:50:59.306Z,4.72
2023-04-29T22:53:27.680Z,4.71
2023-04-29T22:55:57.119Z,4.71
2023-04-29T22:58:26.396Z,4.64
2023-04-29T23:00:57.246Z,4.62
2023-04-29T23:03:25.531Z,4.60
2023-04-29T23:05:54.988Z,4.57
2023-04-29T23:08:22.861Z,4.56
2023-04-29T23:10:50.997Z,4.54
2023-04-29T23:13:19.029Z,4.55
2023-04-29T23:15:47.095Z,4.53
2023-04-29T23:18:16.498Z,4.54
2023-04-29T23:20:47.829Z,4.54
2023-04-29T23:23:15.880Z,4.52
2023-04-29T23:25:43.768Z,4.53
2023-04-29T23:28:11.704Z,4.53
2023-04-29T23:30:39.583Z,4.51
2023-04-29T23:33:07.568Z,4.47
2023-04-29T23:35:36.893Z,4.46
2023-04-29T23:38:04.858Z,4.44
2023-04-29T23:40:32.811Z,4.40
2023-04-29T23:43:00.774Z,4.37
2023-04-29T23:45:29.928Z,4.39
2023-04-29T23:47:57.826Z,4.35
2023-04-29T23:50:25.843Z,4.28
2023-04-29T23:52:55.103Z,4.28
2023-04-29T23:55:23.022Z,4.27
2023-04-29T23:57:50.946Z,4.26
